createdAt,value
2022-09-10T00:01:06.277Z,3.33
2022-09-10T00:03:32.880Z,4.90
2022-09-10T00:05:59.447Z,7.10
2022-09-10T00:08:26.451Z,5.83
2022-09-10T00:10:53.077Z,10.97
2022-09-10T00:13:21.922Z,2.77
2022-09-10T00:15:51.205Z,6.20
2022-09-10T00:18:19.627Z,9.10
2022-09-10T00:20:51.295Z,8.03
2022-09-10T00:23:20.147Z,4.63
2022-09-10T00:25:50.844Z,3.73
2022-09-10T00:28:21.718Z,4.60
2022-09-10T00:30:50.093Z,21.03
2022-09-10T00:33:18.278Z,7.17
2022-09-10T00:35:47.528Z,6.37
2022-09-10T00:38:15.084Z,9.13
2022-09-10T00:40:44.526Z,5.53
2022-09-10T00:43:16.766Z,3.40
2022-09-10T00:45:44.477Z,7.73
2022-09-10T00:48:28.594Z,4.40
2022-09-10T00:50:55.429Z,3.70
2022-09-10T00:53:24.457Z,6.60
2022-09-10T00:55:53.903Z,4.80
2022-09-10T00:58:22.727Z,6.30
2022-09-10T01:00:51.356Z,7.43
2022-09-10T01:03:22.421Z,3.30
2022-09-10T01:05:51.600Z,3.87
2022-09-10T01:08:20.681Z,7.50
2022-09-10T01:11:16.887Z,6.53
2022-09-10T01:13:55.925Z,7.37
2022-09-10T01:16:40.439Z,3.53
2022-09-10T01:19:13.043Z,5.40
2022-09-10T01:22:17.307Z,5.53
2022-09-10T01:24:54.489Z,5.37
2022-09-10T01:27:35.582Z,3.20
2022-09-10T01:30:10.275Z,5.13
2022-09-10T01:32:56.311Z,3.20
2022-09-10T01:35:40.263Z,6.90
2022-09-10T01:38:19.036Z,5.37
2022-09-10T01:40:46.544Z,6.13
2022-09-10T01:43:17.187Z,9.03
2022-09-10T01:45:54.608Z,7.00
2022-09-10T01:48:59.890Z,6.57
2022-09-10T01:51:40.616Z,5.67
2022-09-10T01:54:26.327Z,12.23
2022-09-10T01:56:59.591Z,10.63
2022-09-10T02:00:10.375Z,7.83
2022-09-10T02:03:01.881Z,13.17
2022-09-10T02:05:35.195Z,6.53
2022-09-10T02:08:08.978Z,8.50
2022-09-10T02:10:49.526Z,5.33
2022-09-10T02:13:16.252Z,6.90
2022-09-10T02:15:56.683Z,6.63
2022-09-10T02:18:26.361Z,4.17
2022-09-10T02:20:55.993Z,4.80
2022-09-10T02:23:27.351Z,4.97
2022-09-10T02:25:54.149Z,6.40
2022-09-10T02:28:26.795Z,12.80
2022-09-10T02:30:55.879Z,15.07
2022-09-10T02:33:22.541Z,7.40
2022-09-10T02:35:49.953Z,7.70
2022-09-10T02:38:18.122Z,8.87
2022-09-10T02:40:49.699Z,5.27
2022-09-10T02:43:17.375Z,4.63
2022-09-10T02:45:44.666Z,15.13
2022-09-10T02:48:11.429Z,9.77
2022-09-10T02:50:39.006Z,9.43
2022-09-10T02:53:06.914Z,8.70
2022-09-10T02:55:33.505Z,8.10
2022-09-10T02:58:00.102Z,8.83
2022-09-10T03:00:26.659Z,8.37
2022-09-10T03:03:00.871Z,27.90
2022-09-10T03:05:29.555Z,8.27
2022-09-10T03:07:57.369Z,18.33
2022-09-10T03:10:24.452Z,9.53
2022-09-10T03:12:51.044Z,8.63
2022-09-10T03:15:20.524Z,14.73
2022-09-10T03:17:48.089Z,15.83
2022-09-10T03:20:15.039Z,7.33
2022-09-10T03:22:41.611Z,11.30
2022-09-10T03:25:11.679Z,9.73
2022-09-10T03:27:38.563Z,10.77
2022-09-10T03:30:08.273Z,11.03
2022-09-10T03:32:35.015Z,8.97
2022-09-10T03:35:01.639Z,8.90
2022-09-10T03:37:28.512Z,11.87
2022-09-10T03:39:59.648Z,8.83
2022-09-10T03:42:31.163Z,11.13
2022-09-10T03:44:58.201Z,7.27
2022-09-10T03:47:25.143Z,8.80
2022-09-10T03:49:54.036Z,10.43
2022-09-10T03:52:22.891Z,13.13
2022-09-10T03:54:51.089Z,8.90
2022-09-10T03:57:17.864Z,8.43
2022-09-10T03:59:46.800Z,8.43
2022-09-10T04:02:14.609Z,7.47
2022-09-10T04:04:41.440Z,8.17
2022-09-10T04:07:10.443Z,7.70
2022-09-10T04:09:37.209Z,10.27
2022-09-10T04:12:04.028Z,10.80
2022-09-10T04:14:32.573Z,8.80
2022-09-10T04:17:00.829Z,11.60
2022-09-10T04:19:30.373Z,10.40
2022-09-10T04:21:59.131Z,16.23
2022-09-10T04:24:25.829Z,12.03
2022-09-10T04:26:52.529Z,11.50
2022-09-10T04:29:19.170Z,9.23
2022-09-10T04:31:46.812Z,9.07
2022-09-10T04:34:16.420Z,19.77
2022-09-10T04:36:43.196Z,10.23
2022-09-10T04:39:10.069Z,10.50
2022-09-10T04:41:38.980Z,7.63
2022-09-10T04:44:06.929Z,8.53
2022-09-10T04:46:35.063Z,10.10
2022-09-10T04:49:03.345Z,6.63
2022-09-10T04:51:31.283Z,6.87
2022-09-10T04:53:59.376Z,15.80
2022-09-10T04:56:30.914Z,14.63
2022-09-10T04:58:58.433Z,14.93
2022-09-10T05:01:26.349Z,11.90
2022-09-10T05:03:53.534Z,9.67
2022-09-10T05:06:23.324Z,10.53
2022-09-10T05:08:50.697Z,7.93
2022-09-10T05:11:19.637Z,8.43
2022-09-10T05:13:46.498Z,7.23
2022-09-10T05:16:16.768Z,6.97
2022-09-10T05:18:44.396Z,7.97
2022-09-10T05:21:11.231Z,8.20
2022-09-10T05:23:40.589Z,9.77
2022-09-10T05:26:08.409Z,8.37
2022-09-10T05:28:37.470Z,8.07
2022-09-10T05:31:07.225Z,9.17
2022-09-10T05:33:34.507Z,6.07
2022-09-10T05:36:01.164Z,8.23
2022-09-10T05:38:28.607Z,6.17
2022-09-10T05:40:57.777Z,8.20
2022-09-10T05:43:24.398Z,6.80
2022-09-10T05:45:52.297Z,6.53
2022-09-10T05:48:35.990Z,8.57
2022-09-10T05:51:06.288Z,6.23
2022-09-10T05:53:41.703Z,11.53
2022-09-10T05:56:08.638Z,6.77
2022-09-10T05:58:36.614Z,6.10
2022-09-10T06:01:11.203Z,5.07
2022-09-10T06:03:40.422Z,8.80
2022-09-10T06:06:07.701Z,9.73
2022-09-10T06:08:37.258Z,3.83
2022-09-10T06:11:20.510Z,5.03
2022-09-10T06:13:49.895Z,7.90
2022-09-10T06:16:18.207Z,5.40
2022-09-10T06:18:45.289Z,2.53
2022-09-10T06:21:17.312Z,3.60
2022-09-10T06:23:46.401Z,4.33
2022-09-10T06:26:18.504Z,4.57
2022-09-10T06:28:46.658Z,4.67
2022-09-10T06:31:20.138Z,3.43
2022-09-10T06:33:49.603Z,3.60
2022-09-10T06:36:19.982Z,3.30
2022-09-10T06:38:49.535Z,3.80
2022-09-10T06:41:17.224Z,15.40
2022-09-10T06:44:06.753Z,3.13
2022-09-10T06:47:30.507Z,6.07
2022-09-10T06:49:25.092Z,3.97
2022-09-10T06:51:52.280Z,6.43
2022-09-10T06:54:19.086Z,5.17
2022-09-10T06:56:48.788Z,4.07
2022-09-10T06:59:16.987Z,5.93
2022-09-10T07:01:47.528Z,4.80
2022-09-10T07:04:20.391Z,5.57
2022-09-10T07:06:48.606Z,6.70
2022-09-10T07:09:16.329Z,4.53
2022-09-10T07:11:51.925Z,3.87
2022-09-10T07:14:19.377Z,3.83
2022-09-10T07:16:47.489Z,4.77
2022-09-10T07:19:21.794Z,3.97
2022-09-10T07:21:50.100Z,4.73
2022-09-10T07:24:17.127Z,5.53
2022-09-10T07:26:59.395Z,5.73
2022-09-10T07:29:26.534Z,2.70
2022-09-10T07:31:53.981Z,4.23
2022-09-10T07:34:26.387Z,4.70
2022-09-10T07:36:53.253Z,4.30
2022-09-10T07:39:25.784Z,3.10
2022-09-10T07:42:02.646Z,5.90
2022-09-10T07:44:41.028Z,4.13
2022-09-10T07:47:07.628Z,4.60
2022-09-10T07:49:34.597Z,3.97
2022-09-10T07:52:03.628Z,6.40
2022-09-10T07:54:36.829Z,3.27
2022-09-10T07:57:05.174Z,5.70
2022-09-10T07:59:32.838Z,4.23
2022-09-10T08:02:02.107Z,4.37
2022-09-10T08:04:42.005Z,6.70
2022-09-10T08:07:11.161Z,5.83
2022-09-10T08:09:40.271Z,4.70
2022-09-10T08:12:09.543Z,3.10
2022-09-10T08:14:38.933Z,3.87
2022-09-10T08:17:06.057Z,4.27
2022-09-10T08:19:37.782Z,5.30
2022-09-10T08:22:04.420Z,4.83
2022-09-10T08:24:37.781Z,4.17
2022-09-10T08:27:04.603Z,3.50
2022-09-10T08:29:31.772Z,4.17
2022-09-10T08:31:59.485Z,4.67
2022-09-10T08:34:30.825Z,9.00
2022-09-10T08:37:05.076Z,5.43
2022-09-10T08:39:36.798Z,5.60
2022-09-10T08:42:21.967Z,3.20
2022-09-10T08:44:53.984Z,4.20
2022-09-10T08:47:31.167Z,3.97
2022-09-10T08:50:11.972Z,4.73
2022-09-10T08:53:12.979Z,4.70
2022-09-10T08:55:48.710Z,4.03
2022-09-10T08:58:22.802Z,4.97
2022-09-10T09:00:57.140Z,4.30
2022-09-10T09:03:42.985Z,3.53
2022-09-10T09:06:41.189Z,5.00
2022-09-10T09:09:14.799Z,5.30
2022-09-10T09:12:15.610Z,3.77
2022-09-10T09:14:45.806Z,6.10
2022-09-10T09:17:22.320Z,6.00
2022-09-10T09:20:10.611Z,8.57
2022-09-10T09:22:52.496Z,5.20
2022-09-10T09:25:30.272Z,8.87
2022-09-10T09:27:57.603Z,8.60
2022-09-10T09:30:42.105Z,8.53
2022-09-10T09:33:22.678Z,7.60
2022-09-10T09:36:17.513Z,9.83
2022-09-10T09:38:48.362Z,5.57
2022-09-10T09:41:23.880Z,9.93
2022-09-10T09:43:58.916Z,7.37
2022-09-10T09:46:26.410Z,6.53
2022-09-10T09:49:01.931Z,6.40
2022-09-10T09:51:35.717Z,5.53
2022-09-10T09:56:58.159Z,6.60
2022-09-10T09:59:34.766Z,7.07
2022-09-10T10:02:10.563Z,6.40
2022-09-10T10:04:41.980Z,5.80
2022-09-10T10:07:09.014Z,7.83
2022-09-10T10:09:42.406Z,8.60
2022-09-10T10:12:19.088Z,11.57
2022-09-10T10:14:45.846Z,8.27
2022-09-10T10:17:31.346Z,9.97
2022-09-10T10:20:00.927Z,10.13
2022-09-10T10:22:30.322Z,7.40
2022-09-10T10:24:56.979Z,10.20
2022-09-10T10:27:35.916Z,9.77
2022-09-10T10:30:11.394Z,11.43
2022-09-10T10:32:46.454Z,10.70
2022-09-10T10:35:33.546Z,9.17
2022-09-10T10:38:27.440Z,8.73
2022-09-10T10:41:12.789Z,9.80
2022-09-10T10:43:45.372Z,9.10
2022-09-10T10:46:21.247Z,11.17
2022-09-10T10:49:16.418Z,8.97
2022-09-10T10:51:55.410Z,9.97
2022-09-10T10:54:28.520Z,7.73
2022-09-10T10:57:20.110Z,8.60
2022-09-10T11:00:01.187Z,8.23
2022-09-10T11:02:44.543Z,8.23
2022-09-10T11:05:31.751Z,7.73
2022-09-10T11:08:19.974Z,6.80
2022-09-10T11:10:50.739Z,8.30
2022-09-10T11:13:27.220Z,7.70
2022-09-10T11:16:02.685Z,7.20
2022-09-10T11:19:03.093Z,9.43
2022-09-10T11:21:51.702Z,11.43
2022-09-10T11:24:41.460Z,10.77
2022-09-10T11:27:35.964Z,8.93
2022-09-10T11:30:10.077Z,9.73
2022-09-10T11:33:01.263Z,7.77
2022-09-10T11:35:44.580Z,6.80
2022-09-10T11:38:36.282Z,7.00
2022-09-10T11:41:14.789Z,12.23
2022-09-10T11:44:36.229Z,6.63
2022-09-10T11:47:36.751Z,6.93
2022-09-10T11:50:07.019Z,6.77
2022-09-10T11:52:36.204Z,6.43
2022-09-10T11:55:08.416Z,10.80
2022-09-10T11:58:00.297Z,6.47
2022-09-10T12:00:29.010Z,6.07
2022-09-10T12:03:09.394Z,8.10
2022-09-10T12:05:57.845Z,6.70
2022-09-10T12:08:51.225Z,7.83
2022-09-10T12:11:47.868Z,8.03
2022-09-10T12:14:17.378Z,7.13
2022-09-10T12:16:45.362Z,6.70
2022-09-10T12:19:29.279Z,6.97
2022-09-10T12:22:01.214Z,9.93
2022-09-10T12:24:37.043Z,7.50
2022-09-10T12:27:05.545Z,6.10
2022-09-10T12:29:40.657Z,7.10
2022-09-10T12:32:19.331Z,7.07
2022-09-10T12:34:49.765Z,7.53
2022-09-10T12:37:25.694Z,7.13
2022-09-10T12:40:26.516Z,7.67
2022-09-10T12:42:59.264Z,7.90
2022-09-10T12:46:00.866Z,6.53
2022-09-10T12:48:27.704Z,6.53
2022-09-10T12:50:57.945Z,7.23
2022-09-10T12:53:39.635Z,6.43
2022-09-10T12:56:18.213Z,5.90
2022-09-10T12:58:54.260Z,10.17
2022-09-10T13:01:31.771Z,7.80
2022-09-10T13:04:00.367Z,7.87
2022-09-10T13:06:40.769Z,5.37
2022-09-10T13:09:27.821Z,5.07
2022-09-10T13:11:57.070Z,5.70
2022-09-10T13:14:29.033Z,6.33
2022-09-10T13:16:55.846Z,6.23
2022-09-10T13:19:23.525Z,6.40
2022-09-10T13:21:52.145Z,6.50
2022-09-10T13:24:34.399Z,5.40
2022-09-10T13:27:04.133Z,5.80
2022-09-10T13:29:35.010Z,5.90
2022-09-10T13:32:24.810Z,6.00
2022-09-10T13:35:19.660Z,7.53
2022-09-10T13:37:58.723Z,7.43
2022-09-10T13:40:53.218Z,5.97
2022-09-10T13:44:00.963Z,5.30
2022-09-10T13:46:36.973Z,7.60
2022-09-10T13:49:03.509Z,6.63
2022-09-10T13:51:48.223Z,5.00
2022-09-10T13:54:33.187Z,4.77
2022-09-10T13:57:22.731Z,5.20
2022-09-10T13:59:51.777Z,4.60
2022-09-10T14:02:21.407Z,4.33
2022-09-10T14:04:48.202Z,3.97
2022-09-10T14:07:23.347Z,4.00
2022-09-10T14:09:53.307Z,3.93
2022-09-10T14:12:21.469Z,3.47
2022-09-10T14:14:54.924Z,4.60
2022-09-10T14:17:25.742Z,3.80
2022-09-10T14:20:01.474Z,12.50
2022-09-10T14:22:29.047Z,3.67
2022-09-10T14:25:04.847Z,6.63
2022-09-10T14:27:49.025Z,4.83
2022-09-10T14:30:18.335Z,3.27
2022-09-10T14:32:46.218Z,7.40
2022-09-10T14:35:34.619Z,2.80
2022-09-10T14:38:09.138Z,2.73
2022-09-10T14:40:37.092Z,1.97
2022-09-10T14:43:30.198Z,2.80
2022-09-10T14:45:57.140Z,2.00
2022-09-10T14:48:27.979Z,2.37
2022-09-10T14:51:11.002Z,1.90
2022-09-10T14:53:38.314Z,2.00
2022-09-10T14:56:06.533Z,1.90
2022-09-10T14:58:36.253Z,3.80
2022-09-10T15:01:03.650Z,3.57
2022-09-10T15:03:30.312Z,2.00
2022-09-10T15:05:56.891Z,2.13
2022-09-10T15:08:23.447Z,1.63
2022-09-10T15:10:58.458Z,1.73
2022-09-10T15:13:25.145Z,2.80
2022-09-10T15:15:53.727Z,2.70
2022-09-10T15:18:22.702Z,3.73
2022-09-10T15:20:50.497Z,4.70
2022-09-10T15:23:20.652Z,13.40
2022-09-10T15:25:52.564Z,2.10
2022-09-10T15:28:21.653Z,4.20
2022-09-10T15:30:49.455Z,2.10
2022-09-10T15:33:16.117Z,4.83
2022-09-10T15:35:42.728Z,2.00
2022-09-10T15:38:13.145Z,1.87
2022-09-10T15:40:39.743Z,1.80
2022-09-10T15:43:06.641Z,2.73
2022-09-10T15:45:39.880Z,2.33
2022-09-10T15:48:07.189Z,2.27
2022-09-10T15:50:33.761Z,2.30
2022-09-10T15:53:00.472Z,2.37
2022-09-10T15:55:27.678Z,2.23
2022-09-10T15:57:54.418Z,2.60
2022-09-10T16:00:21.122Z,1.97
2022-09-10T16:02:53.025Z,1.87
2022-09-10T16:05:21.079Z,2.60
2022-09-10T16:07:49.817Z,3.10
2022-09-10T16:10:19.062Z,3.53
2022-09-10T16:12:45.619Z,7.57
2022-09-10T16:15:12.279Z,2.00
2022-09-10T16:17:38.847Z,2.37
2022-09-10T16:20:05.812Z,3.30
2022-09-10T16:22:35.428Z,2.73
2022-09-10T16:25:02.132Z,5.00
2022-09-10T16:27:29.560Z,2.30
2022-09-10T16:29:56.246Z,4.13
2022-09-10T16:32:22.902Z,2.30
2022-09-10T16:34:49.468Z,2.70
2022-09-10T16:37:17.373Z,2.80
2022-09-10T16:39:44.042Z,3.73
2022-09-10T16:42:10.819Z,3.40
2022-09-10T16:44:37.580Z,2.90
2022-09-10T16:47:04.216Z,2.50
2022-09-10T16:49:32.425Z,2.50
2022-09-10T16:51:59.407Z,2.87
2022-09-10T16:54:26.594Z,2.30
2022-09-10T16:56:53.838Z,3.10
2022-09-10T16:59:22.585Z,4.50
2022-09-10T17:01:49.993Z,3.30
2022-09-10T17:04:22.363Z,3.47
2022-09-10T17:06:51.419Z,2.70
2022-09-10T17:09:18.054Z,5.90
2022-09-10T17:11:46.927Z,3.57
2022-09-10T17:14:13.523Z,2.67
2022-09-10T17:16:41.432Z,2.70
2022-09-10T17:19:14.522Z,6.13
2022-09-10T17:21:47.326Z,6.53
2022-09-10T17:24:14.247Z,5.97
2022-09-10T17:26:41.404Z,3.00
2022-09-10T17:29:10.376Z,3.33
2022-09-10T17:31:37.188Z,3.27
2022-09-10T17:34:04.191Z,3.07
2022-09-10T17:36:31.130Z,2.93
2022-09-10T17:38:59.212Z,3.43
2022-09-10T17:41:29.524Z,5.10
2022-09-10T17:43:58.183Z,3.40
2022-09-10T17:46:24.901Z,6.83
2022-09-10T17:48:51.782Z,3.77
2022-09-10T17:51:21.480Z,6.40
2022-09-10T17:53:48.472Z,9.07
2022-09-10T17:56:19.001Z,5.87
2022-09-10T17:58:47.216Z,5.07
2022-09-10T18:01:34.631Z,8.47
2022-09-10T18:04:01.559Z,5.60
2022-09-10T18:06:29.151Z,7.33
2022-09-10T18:09:00.581Z,6.60
2022-09-10T18:11:30.135Z,4.70
2022-09-10T18:13:57.782Z,7.00
2022-09-10T18:16:27.114Z,9.53
2022-09-10T18:19:15.893Z,5.47
2022-09-10T18:21:44.878Z,7.87
2022-09-10T18:24:16.861Z,7.03
2022-09-10T18:26:45.438Z,4.73
2022-09-10T18:29:11.910Z,4.97
2022-09-10T18:31:40.677Z,6.40
2022-09-10T18:34:11.453Z,5.77
2022-09-10T18:36:38.082Z,7.57
2022-09-10T18:39:06.882Z,4.70
2022-09-10T18:41:37.981Z,4.70
2022-09-10T18:44:07.983Z,7.70
2022-09-10T18:46:35.619Z,5.03
2022-09-10T18:49:02.667Z,5.07
2022-09-10T18:51:30.652Z,7.67
2022-09-10T18:54:01.735Z,6.40
2022-09-10T18:56:31.042Z,12.83
2022-09-10T18:59:04.901Z,11.67
2022-09-10T19:01:32.425Z,6.07
2022-09-10T19:03:59.088Z,3.20
2022-09-10T19:06:28.822Z,3.53
2022-09-10T19:09:01.280Z,3.60
2022-09-10T19:11:34.258Z,4.97
2022-09-10T19:14:04.642Z,6.23
2022-09-10T19:16:33.156Z,5.30
2022-09-10T19:19:02.502Z,8.70
2022-09-10T19:21:32.853Z,3.70
2022-09-10T19:24:00.741Z,9.10
2022-09-10T19:26:34.909Z,4.10
2022-09-10T19:29:02.376Z,17.03
2022-09-10T19:31:31.375Z,4.43
2022-09-10T19:34:00.785Z,3.80
2022-09-10T19:36:28.330Z,4.20
2022-09-10T19:38:55.129Z,4.20
2022-09-10T19:41:22.439Z,3.73
2022-09-10T19:43:50.865Z,3.63
2022-09-10T19:46:19.210Z,4.90
2022-09-10T19:48:53.094Z,3.70
2022-09-10T19:51:22.539Z,3.40
2022-09-10T19:53:51.942Z,5.53
2022-09-10T19:56:24.284Z,4.63
2022-09-10T19:58:52.146Z,6.27
2022-09-10T20:01:21.382Z,6.53
2022-09-10T20:03:50.489Z,4.57
2022-09-10T20:06:18.969Z,4.80
2022-09-10T20:08:50.532Z,4.87
2022-09-10T20:11:30.076Z,9.73
2022-09-10T20:14:09.775Z,12.53
2022-09-10T20:16:42.455Z,17.77
2022-09-10T20:19:10.935Z,15.80
2022-09-10T20:21:38.283Z,12.07
2022-09-10T20:24:07.128Z,14.97
2022-09-10T20:26:38.131Z,20.90
2022-09-10T20:29:11.502Z,18.60
2022-09-10T20:31:41.304Z,20.80
2022-09-10T20:34:12.169Z,21.73
2022-09-10T20:36:42.306Z,19.00
2022-09-10T20:39:11.368Z,20.40
2022-09-10T20:41:40.002Z,17.27
2022-09-10T20:44:07.760Z,15.87
2022-09-10T20:46:35.014Z,16.20
2022-09-10T20:49:05.713Z,14.23
2022-09-10T20:51:34.788Z,12.37
2022-09-10T20:54:03.256Z,15.30
2022-09-10T20:56:31.472Z,14.33
2022-09-10T20:59:02.095Z,19.83
2022-09-10T21:01:33.500Z,15.80
2022-09-10T21:04:01.622Z,14.60
2022-09-10T21:06:31.182Z,11.20
2022-09-10T21:08:59.423Z,13.20
2022-09-10T21:11:29.383Z,13.90
2022-09-10T21:13:58.232Z,13.47
2022-09-10T21:16:41.489Z,11.00
2022-09-10T21:19:15.278Z,16.00
2022-09-10T21:21:48.983Z,16.37
2022-09-10T21:24:20.214Z,14.63
2022-09-10T21:26:47.553Z,15.97
2022-09-10T21:29:16.999Z,15.97
2022-09-10T21:31:45.221Z,15.10
2022-09-10T21:34:12.564Z,25.23
2022-09-10T21:36:41.230Z,15.90
2022-09-10T21:39:12.492Z,14.50
2022-09-10T21:41:49.838Z,14.60
2022-09-10T21:44:21.957Z,13.60
2022-09-10T21:46:52.385Z,21.10
2022-09-10T21:49:22.839Z,19.23
2022-09-10T21:51:50.191Z,20.00
2022-09-10T21:54:20.640Z,22.87
2022-09-10T21:56:51.572Z,18.77
2022-09-10T21:59:18.658Z,21.70
2022-09-10T22:01:48.848Z,16.00
2022-09-10T22:04:22.571Z,17.73
2022-09-10T22:06:49.893Z,20.57
2022-09-10T22:09:20.751Z,19.23
2022-09-10T22:11:51.262Z,20.97
2022-09-10T22:14:20.938Z,15.90
2022-09-10T22:16:48.162Z,21.00
2022-09-10T22:19:18.894Z,17.90
2022-09-10T22:21:46.291Z,14.67
2022-09-10T22:24:14.657Z,20.10
2022-09-10T22:26:47.404Z,18.97
2022-09-10T22:29:21.782Z,18.83
2022-09-10T22:31:49.509Z,23.13
2022-09-10T22:34:19.814Z,24.20
2022-09-10T22:36:47.562Z,21.20
2022-09-10T22:39:23.472Z,32.33
2022-09-10T22:41:51.290Z,25.47
2022-09-10T22:44:19.352Z,24.93
2022-09-10T22:46:46.338Z,22.43
2022-09-10T22:49:15.947Z,26.50
2022-09-10T22:51:43.441Z,28.50
2022-09-10T22:54:10.806Z,22.57
2022-09-10T22:56:37.768Z,28.03
2022-09-10T22:59:04.746Z,32.43
2022-09-10T23:01:54.924Z,37.97
2022-09-10T23:04:24.306Z,31.27
2022-09-10T23:06:53.676Z,37.43
2022-09-10T23:09:20.353Z,38.37
2022-09-10T23:11:47.044Z,41.23
2022-09-10T23:14:23.821Z,41.00
2022-09-10T23:16:51.835Z,43.47
2022-09-10T23:19:23.192Z,49.37
2022-09-10T23:21:54.470Z,43.17
2022-09-10T23:24:24.258Z,42.00
2022-09-10T23:26:51.212Z,45.90
2022-09-10T23:29:19.202Z,45.17
2022-09-10T23:31:48.297Z,47.10
2022-09-10T23:34:20.057Z,49.10
2022-09-10T23:36:51.797Z,53.50
2022-09-10T23:39:20.805Z,59.80
2022-09-10T23:41:59.860Z,58.23
2022-09-10T23:44:26.893Z,59.17
2022-09-10T23:47:13.148Z,69.10
2022-09-10T23:49:39.763Z,66.30
2022-09-10T23:52:08.830Z,63.20
2022-09-10T23:54:38.887Z,63.77
2022-09-10T23:57:05.579Z,66.40
2022-09-10T23:59:32.186Z,61.47
